Time;durP1;ratioP1;P1;durP2;ratioP2;P2;SDS_P1;SDS_P2;PMS_P1;PMS_P2;Temp;Humidity;BMP_temperature;BMP_pressure;BME280_temperature;BME280_humidity;BME280_pressure;Samples;Min_cycle;Max_cycle;Signal;HPM_P1;HPM_P2
2022/10/16 00:00:35;;;;;;;;;;;;;;;21.37;68.37;97704.22;596646;237;66464;-71
2022/10/16 00:03:03;;;;;;;;;;;;;;;21.37;68.28;97711.41;597150;237;64813;-71
2022/10/16 00:05:31;;;;;;;;;;;;;;;21.37;68.12;97717.58;597685;237;68994;-70
2022/10/16 00:07:58;;;;;;;;;;;;;;;21.37;67.45;97719.42;597593;237;69484;-71
2022/10/16 00:10:26;;;;;;;;;;;;;;;21.36;67.86;97715.95;597614;237;65037;-79
2022/10/16 00:12:53;;;;;;;;;;;;;;;21.36;68.32;97718.62;597637;237;66400;-80
2022/10/16 00:15:21;;;;;;;;;;;;;;;21.36;68.38;97723.97;597623;237;66404;-79
2022/10/16 00:17:48;;;;;;;;;;;;;;;21.36;68.22;97733.84;597639;237;64749;-79
2022/10/16 00:20:16;;;;;;;;;;;;;;;21.35;67.27;97733.03;597692;237;68393;-79
2022/10/16 00:22:43;;;;;;;;;;;;;;;21.36;67.71;97745.36;597651;237;68384;-79
2022/10/16 00:25:11;;;;;;;;;;;;;;;21.35;68.20;97741.05;596962;237;62830;-80
2022/10/16 00:27:39;;;;;;;;;;;;;;;21.35;68.06;97741.05;596063;237;68664;-79
2022/10/16 00:30:08;;;;;;;;;;;;;;;21.35;67.97;97748.28;597245;237;68292;-80
2022/10/16 00:32:35;;;;;;;;;;;;;;;21.35;68.03;97753.63;597016;237;65104;-80
2022/10/16 00:35:03;;;;;;;;;;;;;;;21.34;67.98;97747.48;596426;237;66584;-71
2022/10/16 00:37:31;;;;;;;;;;;;;;;21.35;67.66;97745.60;597652;237;68489;-70
2022/10/16 00:39:58;;;;;;;;;;;;;;;21.34;67.80;97747.48;597616;237;65102;-80
2022/10/16 00:42:26;;;;;;;;;;;;;;;21.35;67.87;97753.63;597574;236;69125;-80
2022/10/16 00:44:59;;;;;;;;;;;;;;;21.34;66.85;97757.38;597258;237;66204;-80
2022/10/16 00:47:26;;;;;;;;;;;;;;;21.33;67.70;97756.54;596487;237;64965;-80
2022/10/16 00:49:54;;;;;;;;;;;;;;;21.35;68.14;97750.95;597608;237;69026;-80
2022/10/16 00:52:22;;;;;;;;;;;;;;;21.33;67.40;97756.54;597592;237;66872;-80
2022/10/16 00:54:50;;;;;;;;;;;;;;;21.33;67.40;97750.39;597617;237;62882;-79
2022/10/16 00:57:18;;;;;;;;;;;;;;;21.33;66.89;97756.54;596922;237;68644;-80
2022/10/16 00:59:46;;;;;;;;;;;;;;;21.32;67.77;97757.61;596944;237;65035;-80
2022/10/16 01:02:15;;;;;;;;;;;;;;;21.33;67.90;97755.73;597621;237;63042;-80
2022/10/16 01:04:44;;;;;;;;;;;;;;;21.33;68.32;97761.09;597589;237;68795;-80
2022/10/16 01:07:24;;;;;;;;;;;;;;;21.31;66.84;97764.03;596330;237;68526;-80
2022/10/16 01:10:05;;;;;;;;;;;;;;;21.32;67.71;97765.63;597435;237;62920;-70
2022/10/16 01:12:49;;;;;;;;;;;;;;;21.32;67.23;97765.63;597632;237;69264;-70
2022/10/16 01:15:18;;;;;;;;;;;;;;;21.31;68.10;97766.70;597645;237;67451;-69
2022/10/16 01:18:01;;;;;;;;;;;;;;;21.31;67.56;97774.73;597589;237;64970;-69
2022/10/16 01:20:34;;;;;;;;;;;;;;;21.29;67.10;97768.82;597365;237;67701;-70
2022/10/16 01:23:03;;;;;;;;;;;;;;;21.29;67.20;97771.49;596267;237;68692;-69
2022/10/16 01:25:33;;;;;;;;;;;;;;;21.29;68.19;97766.14;597404;237;62323;-69
2022/10/16 01:28:02;;;;;;;;;;;;;;;21.28;67.63;97770.69;597477;236;68750;-69
2022/10/16 01:30:31;;;;;;;;;;;;;;;21.28;67.01;97770.69;597411;237;67388;-69
2022/10/16 01:33:12;;;;;;;;;;;;;;;21.29;68.54;97771.49;596410;237;63218;-69
2022/10/16 01:35:41;;;;;;;;;;;;;;;21.28;66.71;97770.69;596566;237;68668;-70
2022/10/16 01:38:13;;;;;;;;;;;;;;;21.28;67.61;97770.69;596536;236;66522;-69
2022/10/16 01:40:42;;;;;;;;;;;;;;;21.28;66.93;97769.89;596434;235;64912;-79
2022/10/16 01:43:11;;;;;;;;;;;;;;;21.28;68.02;97769.89;595307;238;68669;-78
2022/10/16 01:45:39;;;;;;;;;;;;;;;21.28;67.55;97780.59;596072;238;68603;-79
2022/10/16 01:48:09;;;;;;;;;;;;;;;21.28;68.07;97775.23;595573;238;64907;-79
2022/10/16 01:50:38;;;;;;;;;;;;;;;21.27;67.09;97773.61;595614;238;68671;-78
2022/10/16 01:53:08;;;;;;;;;;;;;;;21.27;67.98;97777.08;596071;238;68718;-69
2022/10/16 01:55:37;;;;;;;;;;;;;;;21.26;67.47;97772.01;596156;238;63667;-69
2022/10/16 01:58:06;;;;;;;;;;;;;;;21.27;66.96;97787.77;596100;238;66113;-69
2022/10/16 02:00:34;;;;;;;;;;;;;;;21.26;67.49;97780.02;595204;238;68821;-69
2022/10/16 02:03:03;;;;;;;;;;;;;;;21.26;67.38;97782.70;595467;238;65054;-69
2022/10/16 02:05:50;;;;;;;;;;;;;;;21.26;67.25;97782.70;594976;238;66552;-69
2022/10/16 02:08:18;;;;;;;;;;;;;;;21.26;67.01;97785.38;594783;237;73519;-69
2022/10/16 02:10:46;;;;;;;;;;;;;;;21.26;67.81;97788.05;594893;238;62450;-70
2022/10/16 02:13:15;;;;;;;;;;;;;;;21.24;66.65;97784.81;595303;238;68690;-69
2022/10/16 02:15:43;;;;;;;;;;;;;;;21.24;66.98;97790.16;595004;237;68529;-69
2022/10/16 02:18:11;;;;;;;;;;;;;;;21.25;67.68;97786.41;594939;238;66034;-69
2022/10/16 02:20:39;;;;;;;;;;;;;;;21.24;67.33;97782.94;596084;238;69553;-69
2022/10/16 02:23:09;;;;;;;;;;;;;;;21.24;67.66;97790.95;596015;237;68588;-69
2022/10/16 02:25:38;;;;;;;;;;;;;;;21.24;67.95;97790.16;596092;238;65202;-69
2022/10/16 02:28:07;;;;;;;;;;;;;;;21.23;67.14;97792.03;596098;238;68398;-69
2022/10/16 02:30:36;;;;;;;;;;;;;;;21.23;68.45;97794.70;594920;237;68542;-70
2022/10/16 02:33:05;;;;;;;;;;;;;;;21.23;67.43;97788.55;595215;238;62842;-70
2022/10/16 02:35:32;;;;;;;;;;;;;;;21.23;67.86;97789.36;595061;238;68248;-69
2022/10/16 02:38:00;;;;;;;;;;;;;;;21.23;67.48;97796.58;595358;238;66220;-69
2022/10/16 02:40:28;;;;;;;;;;;;;;;21.22;67.93;97793.07;595481;235;62795;-70
2022/10/16 02:42:56;;;;;;;;;;;;;;;21.22;66.78;97797.61;597537;237;66539;-70
2022/10/16 02:45:24;;;;;;;;;;;;;;;21.23;68.21;97793.91;596771;237;68568;-78
2022/10/16 02:47:52;;;;;;;;;;;;;;;21.23;68.57;97791.23;597080;237;63596;-78
2022/10/16 02:50:19;;;;;;;;;;;;;;;21.22;67.09;97790.40;597543;237;66480;-78
2022/10/16 02:52:47;;;;;;;;;;;;;;;21.22;68.08;97797.61;596322;237;68609;-69
2022/10/16 02:55:15;;;;;;;;;;;;;;;21.22;67.26;97800.29;596288;237;66419;-78
2022/10/16 02:57:42;;;;;;;;;;;;;;;21.21;67.79;97806.70;596768;237;68646;-69
2022/10/16 03:00:11;;;;;;;;;;;;;;;21.21;68.06;97798.69;596348;237;68415;-69
2022/10/16 03:02:39;;;;;;;;;;;;;;;21.21;67.28;97812.86;596377;237;63248;-69
2022/10/16 03:05:07;;;;;;;;;;;;;;;21.21;67.69;97812.05;597570;237;66804;-69
2022/10/16 03:07:34;;;;;;;;;;;;;;;21.21;68.05;97822.75;597623;237;68767;-69
2022/10/16 03:10:02;;;;;;;;;;;;;;;21.21;67.58;97814.73;597545;237;65165;-69
2022/10/16 03:12:29;;;;;;;;;;;;;;;21.20;67.98;97818.47;596336;237;68766;-69
2022/10/16 03:14:58;;;;;;;;;;;;;;;21.20;66.59;97821.14;596364;237;65723;-69
2022/10/16 03:17:25;;;;;;;;;;;;;;;21.20;67.53;97821.14;596510;237;63675;-69
2022/10/16 03:19:53;;;;;;;;;;;;;;;21.20;67.17;97821.14;597051;237;66459;-69
2022/10/16 03:22:20;;;;;;;;;;;;;;;21.20;67.97;97815.80;597405;237;66802;-69
2022/10/16 03:24:48;;;;;;;;;;;;;;;21.19;68.46;97816.84;596266;237;63672;-69
2022/10/16 03:27:15;;;;;;;;;;;;;;;21.20;68.50;97818.47;597360;237;67478;-69
2022/10/16 03:29:43;;;;;;;;;;;;;;;21.19;68.24;97820.31;597667;237;66532;-69
2022/10/16 03:32:10;;;;;;;;;;;;;;;21.19;68.41;97819.52;596727;237;62797;-69
2022/10/16 03:34:37;;;;;;;;;;;;;;;21.18;67.57;97817.91;596352;237;66532;-69
2022/10/16 03:37:05;;;;;;;;;;;;;;;21.18;68.03;97817.91;596260;237;68201;-69
2022/10/16 03:39:32;;;;;;;;;;;;;;;21.18;67.48;97817.91;596282;237;62933;-69
2022/10/16 03:42:00;;;;;;;;;;;;;;;21.17;67.22;97819.78;594996;236;66063;-69
2022/10/16 03:44:27;;;;;;;;;;;;;;;21.17;67.75;97819.78;594343;238;66472;-69
2022/10/16 03:46:55;;;;;;;;;;;;;;;21.17;67.55;97818.95;592476;238;63769;-69
2022/10/16 03:49:22;;;;;;;;;;;;;;;21.16;67.18;97820.81;594389;238;68705;-69
2022/10/16 03:51:50;;;;;;;;;;;;;;;21.16;67.31;97820.02;592515;238;69448;-69
2022/10/16 03:54:17;;;;;;;;;;;;;;;21.16;67.60;97825.36;592021;239;65181;-69
2022/10/16 03:56:45;;;;;;;;;;;;;;;21.16;67.88;97828.84;591966;239;67411;-69
2022/10/16 03:59:12;;;;;;;;;;;;;;;21.16;67.90;97825.36;591937;239;66465;-69
2022/10/16 04:01:40;;;;;;;;;;;;;;;21.16;68.12;97830.71;591978;239;62724;-69
2022/10/16 04:04:07;;;;;;;;;;;;;;;21.15;67.45;97829.11;593368;238;66200;-69
2022/10/16 04:06:35;;;;;;;;;;;;;;;21.15;68.27;97829.91;594522;238;66845;-69
2022/10/16 04:09:03;;;;;;;;;;;;;;;21.15;67.17;97829.11;594306;238;64920;-69
2022/10/16 04:11:30;;;;;;;;;;;;;;;21.15;68.28;97823.77;594342;238;68651;-69
2022/10/16 04:13:58;;;;;;;;;;;;;;;21.14;68.12;97822.13;592338;238;66458;-69
2022/10/16 04:16:26;;;;;;;;;;;;;;;21.14;67.98;97820.26;592671;238;62777;-69
2022/10/16 04:18:53;;;;;;;;;;;;;;;21.14;68.32;97830.14;594379;237;68735;-69
2022/10/16 04:21:21;;;;;;;;;;;;;;;21.14;68.02;97827.47;591982;239;68727;-69
2022/10/16 04:23:49;;;;;;;;;;;;;;;21.14;67.45;97832.82;591979;239;65213;-69
2022/10/16 04:26:16;;;;;;;;;;;;;;;21.13;67.83;97829.34;591987;239;66766;-69
2022/10/16 04:28:46;;;;;;;;;;;;;;;21.13;68.06;97825.88;591913;238;46733;-69
2022/10/16 04:31:13;;;;;;;;;;;;;;;21.14;68.19;97836.30;592012;239;64862;-69
2022/10/16 04:33:42;;;;;;;;;;;;;;;21.12;68.35;97830.42;593031;238;66351;-69
2022/10/16 04:36:09;;;;;;;;;;;;;;;21.12;68.71;97833.09;593884;238;66534;-69
2022/10/16 04:38:37;;;;;;;;;;;;;;;21.12;68.44;97834.96;592775;238;62823;-69
2022/10/16 04:41:12;;;;;;;;;;;;;;;21.12;68.10;97838.44;593795;236;48502;-69
2022/10/16 04:43:36;;;;;;;;;;;;;;;21.11;68.77;97838.67;597473;237;68378;-80
2022/10/16 04:46:04;;;;;;;;;;;;;;;21.11;68.03;97841.34;597088;237;65135;-80
2022/10/16 04:48:32;;;;;;;;;;;;;;;21.11;68.24;97846.69;596774;237;66152;-70
2022/10/16 04:51:00;;;;;;;;;;;;;;;21.11;67.75;97844.02;597144;237;66694;-68
2022/10/16 04:53:28;;;;;;;;;;;;;;;21.10;68.80;97842.41;596273;237;65080;-80
2022/10/16 04:55:56;;;;;;;;;;;;;;;21.10;67.74;97842.41;596393;237;66111;-80
2022/10/16 04:58:24;;;;;;;;;;;;;;;21.11;68.25;97852.03;596353;237;70125;-80
2022/10/16 05:00:51;;;;;;;;;;;;;;;21.10;67.90;97850.44;596716;237;62788;-79
2022/10/16 05:03:19;;;;;;;;;;;;;;;21.10;68.30;97855.78;596315;237;68948;-79
2022/10/16 05:05:53;;;;;;;;;;;;;;;21.09;67.79;97857.65;597161;236;46517;-80
2022/10/16 05:08:20;;;;;;;;;;;;;;;21.10;69.19;97858.45;596220;237;62904;-79
2022/10/16 05:10:48;;;;;;;;;;;;;;;21.09;68.08;97859.48;596326;237;66549;-79
2022/10/16 05:13:15;;;;;;;;;;;;;;;21.08;68.95;97869.38;597372;237;66537;-69
2022/10/16 05:15:43;;;;;;;;;;;;;;;21.08;68.32;97871.25;596509;237;62828;-70
2022/10/16 05:18:10;;;;;;;;;;;;;;;21.08;68.32;97872.05;597148;237;68642;-70
2022/10/16 05:20:38;;;;;;;;;;;;;;;21.08;68.70;97871.25;596338;237;66532;-70
2022/10/16 05:23:05;;;;;;;;;;;;;;;21.08;68.16;97877.40;596264;237;64948;-70
2022/10/16 05:25:33;;;;;;;;;;;;;;;21.07;68.68;97881.14;596327;237;69580;-70
2022/10/16 05:28:00;;;;;;;;;;;;;;;21.06;68.06;97874.98;597549;237;68493;-69
2022/10/16 05:30:28;;;;;;;;;;;;;;;21.05;67.81;97876.03;597646;237;63689;-78
2022/10/16 05:32:55;;;;;;;;;;;;;;;21.06;68.76;97874.16;597618;237;68721;-78
2022/10/16 05:35:23;;;;;;;;;;;;;;;21.05;68.43;97878.70;597615;237;66476;-77
2022/10/16 05:37:50;;;;;;;;;;;;;;;21.05;68.25;97873.36;597668;237;64946;-78
2022/10/16 05:40:18;;;;;;;;;;;;;;;21.06;67.52;97874.16;597577;236;68687;-78
2022/10/16 05:42:45;;;;;;;;;;;;;;;21.05;67.75;97881.38;597663;237;66211;-78
2022/10/16 05:45:13;;;;;;;;;;;;;;;21.06;68.58;97882.17;597623;237;64908;-78
2022/10/16 05:47:41;;;;;;;;;;;;;;;21.04;68.38;97887.78;597674;237;69599;-78
2022/10/16 05:50:09;;;;;;;;;;;;;;;21.05;68.01;97888.59;596381;237;66789;-79
2022/10/16 05:52:36;;;;;;;;;;;;;;;21.05;67.62;97889.39;597556;237;66015;-76
2022/10/16 05:55:04;;;;;;;;;;;;;;;21.05;68.14;97893.94;597558;237;69587;-76
2022/10/16 05:57:31;;;;;;;;;;;;;;;21.05;68.03;97894.73;597619;237;66438;-79
2022/10/16 05:59:59;;;;;;;;;;;;;;;21.06;67.28;97907.06;597568;237;62917;-78
2022/10/16 06:02:26;;;;;;;;;;;;;;;21.05;67.23;97900.08;596737;237;68925;-78
2022/10/16 06:04:54;;;;;;;;;;;;;;;21.06;67.26;97907.06;596666;237;68548;-78
2022/10/16 06:07:22;;;;;;;;;;;;;;;21.07;67.01;97907.86;596423;237;62330;-70
2022/10/16 06:09:53;;;;;;;;;;;;;;;21.08;67.08;97909.47;596731;237;67161;-70
2022/10/16 06:12:21;;;;;;;;;;;;;;;21.08;66.62;97914.81;596279;237;66488;-70
2022/10/16 06:14:48;;;;;;;;;;;;;;;21.10;68.47;97918.05;597504;237;63155;-70
2022/10/16 06:17:16;;;;;;;;;;;;;;;21.09;68.18;97924.47;597674;237;66791;-70
2022/10/16 06:19:43;;;;;;;;;;;;;;;21.11;68.34;97921.53;597651;237;66435;-70
2022/10/16 06:22:11;;;;;;;;;;;;;;;21.12;68.62;97926.64;596761;237;62780;-70
2022/10/16 06:24:39;;;;;;;;;;;;;;;21.13;68.13;97924.77;596339;237;68617;-78
2022/10/16 06:27:06;;;;;;;;;;;;;;;21.14;68.03;97926.37;597580;237;66436;-78
2022/10/16 06:29:34;;;;;;;;;;;;;;;21.14;68.28;97929.05;597665;237;65066;-78
2022/10/16 06:32:01;;;;;;;;;;;;;;;21.16;68.31;97932.28;596353;237;68851;-78
2022/10/16 06:34:29;;;;;;;;;;;;;;;21.17;67.78;97939.23;597424;237;68859;-78
2022/10/16 06:36:56;;;;;;;;;;;;;;;21.18;67.46;97935.52;597615;237;65129;-78
2022/10/16 06:39:24;;;;;;;;;;;;;;;21.19;68.08;97934.45;597480;237;68670;-78
2022/10/16 06:41:51;;;;;;;;;;;;;;;21.20;68.04;97936.09;597571;236;68521;-78
2022/10/16 06:44:22;;;;;;;;;;;;;;;21.21;67.83;97940.36;596877;237;65181;-78
2022/10/16 06:46:48;;;;;;;;;;;;;;;21.22;67.85;97940.09;595562;236;69714;-79
2022/10/16 06:49:21;;;;;;;;;;;;;;;21.24;67.87;97942.53;595454;237;68592;-78
2022/10/16 06:51:45;;;;;;;;;;;;;;;21.24;68.04;97945.20;596410;236;65370;-78
2022/10/16 06:54:12;;;;;;;;;;;;;;;21.26;67.79;97940.42;597283;237;68651;-78
2022/10/16 06:56:40;;;;;;;;;;;;;;;21.27;67.97;97947.38;597681;237;68424;-78
2022/10/16 06:59:07;;;;;;;;;;;;;;;21.27;67.82;97944.70;597617;237;65129;-77
2022/10/16 07:01:35;;;;;;;;;;;;;;;21.29;67.96;97945.27;597650;237;66689;-77
2022/10/16 07:04:03;;;;;;;;;;;;;;;21.29;67.88;97942.59;597054;237;69755;-78
2022/10/16 07:06:32;;;;;;;;;;;;;;;21.30;66.83;97944.20;596708;237;63653;-77
2022/10/16 07:09:00;;;;;;;;;;;;;;;21.31;67.97;97932.47;596407;237;66868;-78
2022/10/16 07:11:28;;;;;;;;;;;;;;;21.33;68.05;97938.34;597127;237;68549;-77
2022/10/16 07:13:55;;;;;;;;;;;;;;;21.33;68.17;97943.70;596387;237;65094;-78
2022/10/16 07:16:25;;;;;;;;;;;;;;;21.34;66.31;97942.66;597635;237;68722;-77
2022/10/16 07:18:57;;;;;;;;;;;;;;;21.36;67.68;97956.59;597620;237;66574;-78
2022/10/16 07:21:25;;;;;;;;;;;;;;;21.36;67.09;97943.22;597591;237;65272;-77
2022/10/16 07:23:53;;;;;;;;;;;;;;;21.38;66.07;97948.33;597279;237;66153;-78
2022/10/16 07:26:20;;;;;;;;;;;;;;;21.39;66.94;97953.45;596270;237;66755;-77
2022/10/16 07:28:48;;;;;;;;;;;;;;;21.39;66.34;97953.45;596311;237;65303;-77
2022/10/16 07:31:16;;;;;;;;;;;;;;;21.40;66.05;97957.72;597381;237;66700;-77
2022/10/16 07:33:45;;;;;;;;;;;;;;;21.41;66.10;97953.98;597587;237;68631;-78
2022/10/16 07:36:13;;;;;;;;;;;;;;;21.42;66.09;97947.59;597677;237;64659;-78
2022/10/16 07:38:42;;;;;;;;;;;;;;;21.44;66.30;97952.67;596846;237;66455;-77
2022/10/16 07:41:10;;;;;;;;;;;;;;;21.44;66.58;97945.48;596435;235;68736;-77
2022/10/16 07:43:38;;;;;;;;;;;;;;;21.46;66.84;97947.89;597325;237;62743;-78
2022/10/16 07:46:06;;;;;;;;;;;;;;;21.46;67.00;97948.69;596161;237;66463;-77
2022/10/16 07:48:36;;;;;;;;;;;;;;;21.46;65.81;97948.69;596414;237;66853;-78
2022/10/16 07:51:05;;;;;;;;;;;;;;;21.48;67.23;97948.45;596454;237;64903;-77
2022/10/16 07:53:33;;;;;;;;;;;;;;;21.48;66.37;97949.25;597587;237;66511;-78
2022/10/16 07:56:01;;;;;;;;;;;;;;;21.50;65.69;97954.36;597607;237;68475;-77
2022/10/16 07:58:29;;;;;;;;;;;;;;;21.50;65.73;97949.02;597606;237;65153;-77
2022/10/16 08:00:58;;;;;;;;;;;;;;;21.52;65.86;97951.42;596332;237;69518;-77
2022/10/16 08:03:27;;;;;;;;;;;;;;;21.52;66.09;97946.07;596688;237;69715;-78
2022/10/16 08:05:54;;;;;;;;;;;;;;;21.53;65.78;97948.52;595802;237;62841;-77
2022/10/16 08:08:22;;;;;;;;;;;;;;;21.54;66.26;97938.61;596238;237;68731;-77
2022/10/16 08:10:49;;;;;;;;;;;;;;;21.55;66.13;97946.37;597538;237;68215;-77
2022/10/16 08:13:18;;;;;;;;;;;;;;;21.55;65.85;97946.37;597568;237;65292;-78
2022/10/16 08:15:45;;;;;;;;;;;;;;;21.56;66.70;97939.98;597261;235;66658;-78
2022/10/16 08:18:14;;;;;;;;;;;;;;;21.56;65.90;97936.50;596054;237;68855;-78
2022/10/16 08:20:42;;;;;;;;;;;;;;;21.56;66.02;97942.66;596555;237;62823;-78
2022/10/16 08:23:11;;;;;;;;;;;;;;;21.58;65.60;97939.71;596456;237;69503;-78
2022/10/16 08:25:40;;;;;;;;;;;;;;;21.59;66.38;97930.64;597325;237;69140;-78
2022/10/16 08:28:08;;;;;;;;;;;;;;;21.60;66.10;97942.95;596142;237;65077;-78
2022/10/16 08:30:36;;;;;;;;;;;;;;;21.60;65.70;97937.59;597123;237;69726;-78
2022/10/16 08:33:06;;;;;;;;;;;;;;;21.62;66.03;97938.16;596179;235;66465;-78
2022/10/16 08:35:34;;;;;;;;;;;;;;;21.63;66.02;97945.11;596782;237;63039;-77
2022/10/16 08:38:03;;;;;;;;;;;;;;;21.63;66.41;97942.44;597656;237;66074;-78
2022/10/16 08:40:32;;;;;;;;;;;;;;;21.63;65.93;97947.79;596412;236;68322;-77
2022/10/16 08:43:18;;;;;;;;;;;;;;;21.63;65.98;97945.11;593246;238;65972;-77
2022/10/16 08:45:47;;;;;;;;;;;;;;;21.64;66.00;97939.52;594217;238;68790;-77
2022/10/16 08:48:16;;;;;;;;;;;;;;;21.65;66.92;97941.13;592276;238;68305;-77
2022/10/16 08:50:45;;;;;;;;;;;;;;;21.65;65.75;97943.00;594823;238;62383;-78
2022/10/16 08:53:15;;;;;;;;;;;;;;;21.66;65.41;97948.11;594051;238;68343;-78
2022/10/16 08:55:44;;;;;;;;;;;;;;;21.66;66.65;97953.46;591983;239;66295;-77
2022/10/16 08:58:13;;;;;;;;;;;;;;;21.67;66.70;97948.91;594130;237;64707;-77
2022/10/16 09:00:42;;;;;;;;;;;;;;;21.68;65.69;97947.84;592722;238;66502;-77
2022/10/16 09:03:28;;;;;;;;;;;;;;;21.68;65.97;97947.84;593329;238;68340;-77
2022/10/16 09:06:03;;;;;;;;;;;;;;;21.69;66.33;97952.95;593579;238;64962;-77
2022/10/16 09:08:32;;;;;;;;;;;;;;;21.70;66.37;97959.11;594408;238;68679;-77
2022/10/16 09:11:05;;;;;;;;;;;;;;;21.70;66.63;97962.59;592453;238;67716;-77
2022/10/16 09:13:34;;;;;;;;;;;;;;;21.71;65.97;97960.71;594094;237;66000;-77
2022/10/16 09:16:22;;;;;;;;;;;;;;;21.72;66.56;97959.67;594360;238;67402;-77
2022/10/16 09:18:53;;;;;;;;;;;;;;;21.73;66.07;97966.63;593635;238;66471;-76
2022/10/16 09:21:25;;;;;;;;;;;;;;;21.74;65.86;97970.91;594356;238;64979;-77
2022/10/16 09:23:54;;;;;;;;;;;;;;;21.74;66.93;97962.88;592445;238;69211;-77
2022/10/16 09:26:23;;;;;;;;;;;;;;;21.75;65.69;97969.86;592619;238;68535;-77
2022/10/16 09:28:52;;;;;;;;;;;;;;;21.76;66.54;97960.77;594760;238;65084;-76
2022/10/16 09:31:21;;;;;;;;;;;;;;;21.76;65.76;97955.41;593890;238;66595;-77
2022/10/16 09:33:52;;;;;;;;;;;;;;;21.78;65.86;97957.85;593782;238;68801;-77
2022/10/16 09:36:21;;;;;;;;;;;;;;;21.78;65.83;97950.63;593768;237;66339;-77
2022/10/16 09:38:49;;;;;;;;;;;;;;;21.78;65.40;97955.98;593113;238;70281;-77
2022/10/16 09:41:19;;;;;;;;;;;;;;;21.79;65.50;97954.91;594224;236;66667;-77
2022/10/16 09:43:48;;;;;;;;;;;;;;;21.79;66.01;97954.91;594433;238;62833;-77
2022/10/16 09:46:29;;;;;;;;;;;;;;;21.80;66.88;97950.35;591878;239;69579;-77
2022/10/16 09:48:58;;;;;;;;;;;;;;;21.80;65.56;97945.00;591282;239;68578;-77
2022/10/16 09:51:27;;;;;;;;;;;;;;;21.79;66.53;97944.20;591901;239;65040;-78
2022/10/16 09:53:56;;;;;;;;;;;;;;;21.79;65.69;97941.53;591821;238;66316;-78
2022/10/16 09:56:26;;;;;;;;;;;;;;;21.81;64.93;97933.26;591941;239;68733;-77
2022/10/16 09:58:54;;;;;;;;;;;;;;;21.81;64.53;97928.70;591918;239;63975;-76
2022/10/16 10:01:23;;;;;;;;;;;;;;;21.82;66.30;97922.28;591960;239;69035;-76
2022/10/16 10:03:58;;;;;;;;;;;;;;;21.82;65.95;97930.31;591950;239;68822;-76
2022/10/16 10:06:22;;;;;;;;;;;;;;;21.81;65.90;97920.68;593376;238;65200;-76
2022/10/16 10:09:00;;;;;;;;;;;;;;;21.83;63.93;97926.59;594483;238;68870;-76
2022/10/16 10:11:41;;;;;;;;;;;;;;;21.84;66.10;97933.55;594387;238;68570;-76
2022/10/16 10:14:17;;;;;;;;;;;;;;;21.85;64.83;97929.00;594828;238;63099;-76
2022/10/16 10:16:44;;;;;;;;;;;;;;;21.84;64.79;97927.40;594956;238;68711;-76
2022/10/16 10:19:19;;;;;;;;;;;;;;;21.83;64.20;97931.95;595039;238;66445;-76
2022/10/16 10:21:47;;;;;;;;;;;;;;;21.82;63.25;97924.96;594947;238;63679;-76
2022/10/16 10:24:15;;;;;;;;;;;;;;;21.83;64.03;97926.59;593887;238;68763;-76
2022/10/16 10:26:54;;;;;;;;;;;;;;;21.83;62.05;97931.95;594394;238;69618;-76
2022/10/16 10:29:23;;;;;;;;;;;;;;;21.82;63.49;97924.96;592980;238;64886;-76
2022/10/16 10:31:55;;;;;;;;;;;;;;;21.82;63.21;97924.96;591817;238;66556;-76
2022/10/16 10:34:30;;;;;;;;;;;;;;;21.83;60.61;97926.59;591909;238;66540;-76
2022/10/16 10:37:16;;;;;;;;;;;;;;;21.86;61.39;97925.28;592121;238;65630;-77
2022/10/16 10:39:51;;;;;;;;;;;;;;;21.88;62.36;97923.14;594381;238;68774;-77
2022/10/16 10:42:32;;;;;;;;;;;;;;;21.88;63.12;97915.94;593864;236;67289;-75
2022/10/16 10:45:17;;;;;;;;;;;;;;;21.89;61.75;97906.84;591878;238;65269;-77
2022/10/16 10:48:03;;;;;;;;;;;;;;;21.89;61.65;97904.16;591915;239;68607;-77
2022/10/16 10:50:32;;;;;;;;;;;;;;;21.91;61.80;97901.24;593555;238;66781;-77
2022/10/16 10:53:10;;;;;;;;;;;;;;;21.91;62.81;97890.54;591349;238;63948;-77
2022/10/16 10:55:42;;;;;;;;;;;;;;;21.93;62.74;97899.93;593597;237;67491;-77
2022/10/16 10:58:17;;;;;;;;;;;;;;;21.92;63.29;97900.97;594042;237;71202;-77
2022/10/16 11:00:57;;;;;;;;;;;;;;;21.94;62.42;97904.20;592031;239;62896;-70
2022/10/16 11:03:45;;;;;;;;;;;;;;;21.94;63.28;97898.05;591945;238;66441;-69
2022/10/16 11:06:24;;;;;;;;;;;;;;;21.95;62.58;97903.13;591851;238;68723;-70
2022/10/16 11:08:50;;;;;;;;;;;;;;;21.95;63.42;97896.98;591952;238;66071;-70
2022/10/16 11:11:19;;;;;;;;;;;;;;;21.95;62.00;97892.42;591927;239;68378;-70
2022/10/16 11:13:55;;;;;;;;;;;;;;;21.97;61.84;97888.71;591884;238;68580;-70
2022/10/16 11:16:29;;;;;;;;;;;;;;;21.97;62.46;97894.06;591958;239;64050;-70
2022/10/16 11:19:01;;;;;;;;;;;;;;;21.98;63.10;97890.31;594033;238;68976;-70
2022/10/16 11:21:30;;;;;;;;;;;;;;;21.98;62.79;97887.63;594961;237;68576;-70
2022/10/16 11:24:08;;;;;;;;;;;;;;;21.99;63.67;97881.20;594914;238;64935;-70
2022/10/16 11:26:37;;;;;;;;;;;;;;;21.99;61.52;97884.72;592452;238;67434;-69
2022/10/16 11:29:06;;;;;;;;;;;;;;;22.00;62.23;97888.20;590818;238;66524;-69
2022/10/16 11:31:35;;;;;;;;;;;;;;;21.99;62.63;97892.75;592599;238;62815;-69
2022/10/16 11:34:16;;;;;;;;;;;;;;;22.01;62.37;97884.44;594462;237;68786;-69
2022/10/16 11:36:43;;;;;;;;;;;;;;;22.02;62.06;97896.78;594284;237;66096;-69
2022/10/16 11:39:13;;;;;;;;;;;;;;;22.02;61.94;97883.40;593943;237;64887;-69
2022/10/16 11:41:42;;;;;;;;;;;;;;;22.02;61.90;97880.72;597850;235;68617;-69
2022/10/16 11:44:11;;;;;;;;;;;;;;;22.02;61.36;97892.23;599546;235;68536;-69
2022/10/16 11:46:40;;;;;;;;;;;;;;;22.02;61.35;97892.23;594859;235;64846;-69
2022/10/16 11:49:09;;;;;;;;;;;;;;;22.02;62.05;97883.40;599253;235;68662;-69
2022/10/16 11:51:41;;;;;;;;;;;;;;;22.04;61.34;97902.66;602417;235;68473;-69
2022/10/16 11:54:12;;;;;;;;;;;;;;;22.04;61.69;97894.63;599060;235;62777;-69
2022/10/16 11:56:41;;;;;;;;;;;;;;;22.05;62.79;97893.59;602254;235;67437;-69
2022/10/16 11:59:10;;;;;;;;;;;;;;;22.04;61.88;97883.92;602265;235;68350;-69
2022/10/16 12:01:45;;;;;;;;;;;;;;;22.06;61.70;97889.84;600154;235;62851;-69
2022/10/16 12:04:33;;;;;;;;;;;;;;;22.06;62.64;97887.16;599511;235;67491;-69
2022/10/16 12:07:04;;;;;;;;;;;;;;;22.06;62.37;97887.96;599141;235;66808;-69
2022/10/16 12:09:32;;;;;;;;;;;;;;;22.07;61.73;97884.23;600150;235;66092;-69
2022/10/16 12:12:00;;;;;;;;;;;;;;;22.07;62.37;97894.95;602503;235;66439;-69
2022/10/16 12:14:39;;;;;;;;;;;;;;;22.08;62.26;97899.23;599458;235;68557;-70
2022/10/16 12:17:05;;;;;;;;;;;;;;;22.08;61.20;97891.20;600225;235;44815;-70
2022/10/16 12:19:34;;;;;;;;;;;;;;;22.08;61.41;97893.88;596479;235;48504;-70
2022/10/16 12:22:03;;;;;;;;;;;;;;;22.09;61.92;97898.16;602182;235;66511;-70
2022/10/16 12:24:41;;;;;;;;;;;;;;;22.10;62.08;97894.43;600532;235;63014;-70
2022/10/16 12:27:23;;;;;;;;;;;;;;;22.11;62.40;97898.71;601519;235;68437;-68
2022/10/16 12:29:52;;;;;;;;;;;;;;;22.11;62.12;97900.59;600950;235;66650;-71
2022/10/16 12:32:21;;;;;;;;;;;;;;;22.11;61.24;97895.23;600961;235;63746;-68
2022/10/16 12:34:49;;;;;;;;;;;;;;;22.12;61.97;97902.19;598306;235;69824;-68
2022/10/16 12:37:20;;;;;;;;;;;;;;;22.11;62.37;97901.39;601221;235;68674;-70
2022/10/16 12:39:50;;;;;;;;;;;;;;;22.12;62.02;97897.64;597800;235;46336;-70
2022/10/16 12:42:25;;;;;;;;;;;;;;;22.13;62.64;97896.59;602192;235;68666;-70
2022/10/16 12:44:55;;;;;;;;;;;;;;;22.12;61.34;97900.31;602065;235;68575;-70
2022/10/16 12:47:36;;;;;;;;;;;;;;;22.14;62.27;97900.87;599896;235;66107;-70
2022/10/16 12:50:04;;;;;;;;;;;;;;;22.14;61.66;97903.55;599514;235;68403;-70
2022/10/16 12:52:36;;;;;;;;;;;;;;;22.15;62.25;97907.02;602209;235;67080;-70
2022/10/16 12:55:05;;;;;;;;;;;;;;;22.15;62.40;97912.37;601856;235;63698;-70
2022/10/16 12:57:50;;;;;;;;;;;;;;;22.14;61.61;97906.22;600174;235;67129;-70
2022/10/16 13:00:36;;;;;;;;;;;;;;;22.15;62.14;97910.53;602288;235;68553;-70